createdAt,value
2024-04-15T00:04:48.619Z,97899.56
2024-04-15T00:14:53.570Z,97877.50
2024-04-15T00:24:58.737Z,97870.31
2024-04-15T00:35:03.708Z,97853.28
2024-04-15T00:45:32.413Z,97833.91
2024-04-15T00:55:39.055Z,97808.19
2024-04-15T01:05:44.056Z,97785.28
2024-04-15T01:15:49.095Z,97785.84
2024-04-15T01:25:54.527Z,97771.44
2024-04-15T01:35:59.452Z,97769.38
2024-04-15T01:46:04.565Z,97774.28
2024-04-15T01:56:09.712Z,97797.84
2024-04-15T02:06:14.758Z,97783.13
2024-04-15T02:16:19.761Z,97763.53
2024-04-15T02:26:24.649Z,97757.00
2024-04-15T02:36:29.576Z,97752.81
2024-04-15T02:46:34.465Z,97737.03
2024-04-15T02:56:39.368Z,97728.66
2024-04-15T03:06:44.314Z,97732.50
2024-04-15T03:16:49.282Z,97711.47
2024-04-15T03:26:54.408Z,97713.56
2024-04-15T03:36:59.428Z,97706.81
2024-04-15T03:47:04.408Z,97688.81
2024-04-15T03:57:10.080Z,97675.19
2024-04-15T04:07:15.192Z,97678.25
2024-04-15T04:17:20.363Z,97684.41
2024-04-15T04:27:25.289Z,97666.44
2024-04-15T04:37:30.231Z,97651.25
2024-04-15T04:47:35.807Z,97655.47
2024-04-15T04:57:40.722Z,97649.72
2024-04-15T05:07:45.675Z,97633.69
2024-04-15T05:17:50.739Z,97626.31
2024-04-15T05:27:57.989Z,97624.88
2024-04-15T05:38:03.016Z,97634.53
2024-04-15T05:48:09.137Z,97614.97
2024-04-15T05:58:14.364Z,97608.13
2024-04-15T06:08:19.378Z,97601.94
2024-04-15T06:18:24.309Z,97595.44
2024-04-15T06:28:29.422Z,97595.94
2024-04-15T06:38:34.505Z,97592.78
2024-04-15T06:48:42.739Z,97586.78
2024-04-15T06:58:48.090Z,97568.19
2024-04-15T07:08:53.042Z,97551.66
2024-04-15T07:18:58.050Z,97530.34
2024-04-15T07:29:03.084Z,97532.28
2024-04-15T07:39:08.104Z,97518.44
2024-04-15T07:49:13.054Z,97503.72
2024-04-15T07:59:17.936Z,97504.78
2024-04-15T08:09:22.908Z,97510.41
2024-04-15T08:19:31.670Z,97490.44
2024-04-15T08:29:37.114Z,97483.69
2024-04-15T08:39:43.539Z,97463.94
2024-04-15T08:49:48.600Z,97437.69
2024-04-15T08:59:54.203Z,97437.56
2024-04-15T09:09:59.134Z,97419.63
2024-04-15T09:20:04.191Z,97383.22
2024-04-15T09:30:10.976Z,97342.66
2024-04-15T09:40:20.222Z,97350.06
2024-04-15T09:50:26.210Z,97313.94
2024-04-15T10:00:31.201Z,97310.31
2024-04-15T10:10:36.752Z,97286.03
2024-04-15T10:20:44.075Z,97262.59
2024-04-15T10:30:52.808Z,97239.28
2024-04-15T10:40:57.929Z,97205.25
2024-04-15T10:51:02.891Z,97168.75
2024-04-15T11:01:08.163Z,97155.50
2024-04-15T11:11:14.046Z,97110.28
2024-04-15T11:21:19.049Z,97100.13
2024-04-15T11:31:24.304Z,97078.13
2024-04-15T11:41:29.230Z,97062.41
2024-04-15T11:51:34.314Z,97030.06
2024-04-15T12:01:39.550Z,97002.28
2024-04-15T12:11:44.691Z,97005.06
2024-04-15T12:21:50.356Z,96959.56
2024-04-15T12:31:55.782Z,96945.47
2024-04-15T12:42:02.101Z,96923.19
2024-04-15T12:52:07.356Z,96907.53
2024-04-15T13:02:12.587Z,96887.59
2024-04-15T13:12:17.780Z,96883.66
2024-04-15T13:22:23.028Z,96853.88
2024-04-15T13:32:28.100Z,96832.66
2024-04-15T13:42:33.865Z,96830.00
2024-04-15T13:52:39.984Z,96802.25
2024-04-15T14:02:45.158Z,96768.22
2024-04-15T14:12:51.341Z,96691.78
2024-04-15T14:22:56.797Z,96702.72
2024-04-15T14:33:02.135Z,96692.75
2024-04-15T14:43:08.079Z,96666.53
2024-04-15T14:53:13.603Z,96669.31
2024-04-15T15:03:18.595Z,96661.50
2024-04-15T15:13:23.808Z,96641.19
2024-04-15T15:23:29.665Z,96588.25
2024-04-15T15:33:34.637Z,96596.66
2024-04-15T15:43:40.206Z,96588.72
2024-04-15T15:53:45.165Z,96612.56
2024-04-15T16:03:51.575Z,96625.91
2024-04-15T16:13:56.749Z,96703.81
2024-04-15T16:24:01.786Z,96725.13
2024-04-15T16:34:06.937Z,96777.34
2024-04-15T16:44:11.922Z,96803.75
2024-04-15T16:54:16.886Z,96839.81
2024-04-15T17:04:22.275Z,96876.63
2024-04-15T17:14:27.291Z,96814.16
2024-04-15T17:24:32.302Z,96806.16
2024-04-15T17:34:37.306Z,96824.13
2024-04-15T17:44:43.616Z,96893.31
2024-04-15T17:54:49.206Z,96906.84
2024-04-15T18:04:54.244Z,96883.88
2024-04-15T18:14:59.435Z,96854.09
2024-04-15T18:25:04.459Z,96894.28
2024-04-15T18:35:09.659Z,96905.97
2024-04-15T18:45:14.980Z,96902.44
2024-04-15T18:55:20.479Z,96915.69
2024-04-15T19:05:25.560Z,96913.25
2024-04-15T19:15:30.801Z,96930.34
2024-04-15T19:25:36.044Z,96946.47
2024-04-15T19:35:41.099Z,96957.22
2024-04-15T19:45:46.302Z,96967.97
2024-04-15T19:55:51.352Z,96968.56
2024-04-15T20:05:56.436Z,96980.03
2024-04-15T20:16:01.544Z,96991.69
2024-04-15T20:26:08.429Z,96975.94
2024-04-15T20:36:14.433Z,96979.28
2024-04-15T20:46:19.430Z,96976.06
2024-04-15T20:56:24.429Z,96970.97
2024-04-15T21:06:29.473Z,96967.59
2024-04-15T21:16:35.113Z,96956.50
2024-04-15T21:26:41.025Z,96958.91
2024-04-15T21:36:45.977Z,96954.75
2024-04-15T21:46:50.982Z,96938.22
2024-04-15T21:56:58.414Z,96939.13
2024-04-15T22:07:05.277Z,96952.03
2024-04-15T22:17:10.280Z,96948.25
2024-04-15T22:27:15.215Z,96940.63
2024-04-15T22:37:21.732Z,96944.59
2024-04-15T22:47:26.799Z,96966.53
2024-04-15T22:57:31.721Z,96965.09
2024-04-15T23:07:36.927Z,96968.03
2024-04-15T23:17:42.090Z,96957.72
2024-04-15T23:27:47.185Z,96944.63
2024-04-15T23:37:52.956Z,96962.91
2024-04-15T23:47:57.983Z,96953.56
2024-04-15T23:58:07.059Z,96926.56
